createdAt,value
2018-02-05T00:00:40.304Z,101025.31
2018-02-05T00:03:41.672Z,101025.55
2018-02-05T00:06:43.132Z,101027.00
2018-02-05T00:09:44.529Z,101031.97
2018-02-05T00:12:45.930Z,101029.97
2018-02-05T00:15:47.344Z,101023.33
2018-02-05T00:18:48.760Z,101013.67
2018-02-05T00:21:50.208Z,101024.19
2018-02-05T00:24:51.695Z,101027.34
2018-02-05T00:27:53.093Z,101028.81
2018-02-05T00:30:55.361Z,101037.70
2018-02-05T00:33:56.742Z,101041.61
2018-02-05T00:36:58.156Z,101031.08
2018-02-05T00:40:00.284Z,101037.50
2018-02-05T00:43:01.692Z,101039.85
2018-02-05T00:46:03.107Z,101047.67
2018-02-05T00:49:05.239Z,101051.23
2018-02-05T00:52:06.603Z,101053.98
2018-02-05T00:55:08.029Z,101048.53
2018-02-05T00:58:09.415Z,101054.50
2018-02-05T01:01:11.565Z,101052.72
2018-02-05T01:04:13.718Z,101051.82
2018-02-05T01:07:15.145Z,101054.76
2018-02-05T01:10:16.603Z,101060.74
2018-02-05T01:13:18.052Z,101065.27
2018-02-05T01:16:19.427Z,101053.21
2018-02-05T01:19:20.853Z,101053.87
2018-02-05T01:22:22.270Z,101047.24
2018-02-05T01:25:23.669Z,101060.11
2018-02-05T01:28:25.043Z,101061.78
2018-02-05T01:31:26.540Z,101063.94
2018-02-05T01:34:27.937Z,101064.92
2018-02-05T01:37:29.358Z,101059.70
2018-02-05T01:40:30.750Z,101060.56
2018-02-05T01:43:32.902Z,101066.91
2018-02-05T01:46:34.310Z,101058.55
2018-02-05T01:49:35.733Z,101055.73
2018-02-05T01:52:37.104Z,101058.02
2018-02-05T01:55:38.508Z,101053.36
2018-02-05T01:58:39.901Z,101045.64
2018-02-05T02:01:41.281Z,101054.08
2018-02-05T02:04:42.703Z,101041.02
2018-02-05T02:07:44.919Z,101044.33
2018-02-05T02:10:47.026Z,101036.11
2018-02-05T02:13:48.449Z,101042.58
2018-02-05T02:16:49.859Z,101045.65
2018-02-05T02:19:51.337Z,101048.48
2018-02-05T02:22:52.781Z,101052.50
2018-02-05T02:25:54.179Z,101055.86
2018-02-05T02:28:55.893Z,101037.11
2018-02-05T02:31:58.069Z,101051.55
2018-02-05T02:34:59.479Z,101036.65
2018-02-05T02:38:00.920Z,101058.45
2018-02-05T02:41:02.307Z,101047.03
2018-02-05T02:44:03.733Z,101059.89
2018-02-05T02:47:05.966Z,101064.50
2018-02-05T02:50:07.417Z,101060.43
2018-02-05T02:53:09.503Z,101056.84
2018-02-05T02:56:10.917Z,101064.66
2018-02-05T02:59:12.355Z,101069.45
2018-02-05T03:02:13.767Z,101071.05
2018-02-05T03:05:15.198Z,101067.19
2018-02-05T03:08:23.671Z,101075.47
2018-02-05T03:11:25.088Z,101061.50
2018-02-05T03:14:27.206Z,101065.60
2018-02-05T03:17:28.582Z,101065.82
2018-02-05T03:20:30.027Z,101072.23
2018-02-05T03:23:31.449Z,101069.38
2018-02-05T03:26:32.875Z,101069.48
2018-02-05T03:29:34.272Z,101067.67
2018-02-05T03:32:35.689Z,101062.19
2018-02-05T03:35:37.792Z,101061.44
2018-02-05T03:38:39.218Z,101066.48
2018-02-05T03:41:40.530Z,101061.73
2018-02-05T03:44:41.924Z,101072.19
2018-02-05T03:47:44.073Z,101073.12
2018-02-05T03:50:45.448Z,101076.28
2018-02-05T03:53:47.227Z,101078.86
2018-02-05T03:56:48.623Z,101073.45
2018-02-05T03:59:50.008Z,101094.59
2018-02-05T04:02:51.424Z,101082.58
2018-02-05T04:05:53.550Z,101079.34
2018-02-05T04:08:54.916Z,101092.56
2018-02-05T04:11:57.049Z,101089.46
2018-02-05T04:14:58.438Z,101089.10
2018-02-05T04:17:59.844Z,101094.39
2018-02-05T04:21:01.223Z,101098.42
2018-02-05T04:24:02.623Z,101098.55
2018-02-05T04:27:03.956Z,101104.73
2018-02-05T04:30:05.259Z,101114.08
2018-02-05T04:33:06.719Z,101112.30
2018-02-05T04:36:08.028Z,101113.11
2018-02-05T04:39:09.358Z,101106.98
2018-02-05T04:42:10.766Z,101117.55
2018-02-05T04:45:12.139Z,101126.98
2018-02-05T04:48:13.472Z,101127.53
2018-02-05T04:51:14.818Z,101125.79
2018-02-05T04:54:16.185Z,101123.39
2018-02-05T04:57:17.538Z,101127.27
2018-02-05T05:00:18.913Z,101124.10
2018-02-05T05:03:21.019Z,101132.04
2018-02-05T05:06:22.343Z,101128.43
2018-02-05T05:09:23.713Z,101126.53
2018-02-05T05:12:25.008Z,101114.63
2018-02-05T05:15:26.362Z,101129.82
2018-02-05T05:18:27.721Z,101130.77
2018-02-05T05:21:29.048Z,101134.97
2018-02-05T05:24:30.382Z,101143.11
2018-02-05T05:27:31.723Z,101139.47
2018-02-05T05:30:33.019Z,101137.84
2018-02-05T05:33:35.044Z,101150.24
2018-02-05T05:36:36.383Z,101154.66
2018-02-05T05:39:44.738Z,101145.01
2018-02-05T05:42:46.791Z,101140.28
2018-02-05T05:45:48.110Z,101155.60
2018-02-05T05:48:49.626Z,101152.34
2018-02-05T05:51:51.017Z,101153.78
2018-02-05T05:54:52.372Z,101151.34
2018-02-05T05:57:54.482Z,101143.88
2018-02-05T06:00:55.845Z,101156.44
2018-02-05T06:03:57.915Z,101161.91
2018-02-05T06:06:59.247Z,101155.50
2018-02-05T06:10:00.575Z,101158.61
2018-02-05T06:13:01.933Z,101157.39
2018-02-05T06:16:03.284Z,101154.43
2018-02-05T06:19:04.629Z,101160.81
2018-02-05T06:22:05.959Z,101157.26
2018-02-05T06:25:07.278Z,101164.09
2018-02-05T06:28:08.631Z,101162.17
2018-02-05T06:31:10.036Z,101173.66
2018-02-05T06:34:11.388Z,101163.20
2018-02-05T06:37:12.712Z,101166.25
2018-02-05T06:40:14.044Z,101168.53
2018-02-05T06:43:15.371Z,101168.09
2018-02-05T06:46:16.765Z,101034.31
2018-02-05T06:49:18.128Z,101165.39
2018-02-05T06:52:38.095Z,101178.95
2018-02-05T06:55:46.691Z,101172.25
2018-02-05T06:58:48.067Z,101181.20
2018-02-05T07:01:49.455Z,101178.31
2018-02-05T07:04:50.796Z,101181.39
2018-02-05T07:07:52.126Z,101187.55
2018-02-05T07:10:53.463Z,101179.90
2018-02-05T07:13:54.805Z,101192.95
2018-02-05T07:16:56.898Z,101188.66
2018-02-05T07:19:59.013Z,101191.02
2018-02-05T07:23:01.088Z,101192.34
2018-02-05T07:26:02.437Z,101187.93
2018-02-05T07:29:03.798Z,101194.02
2018-02-05T07:32:05.149Z,101196.54
2018-02-05T07:35:06.523Z,101190.16
2018-02-05T07:38:07.889Z,101202.23
2018-02-05T07:41:09.233Z,101190.56
2018-02-05T07:44:10.621Z,101175.77
2018-02-05T07:47:11.902Z,101201.14
2018-02-05T07:50:13.239Z,101201.81
2018-02-05T07:53:14.629Z,101199.94
2018-02-05T07:56:16.042Z,101196.45
2018-02-05T07:59:17.351Z,101198.07
2018-02-05T08:02:18.731Z,101194.49
2018-02-05T08:05:20.056Z,101195.44
2018-02-05T08:08:21.363Z,101198.94
2018-02-05T08:11:22.893Z,101197.19
2018-02-05T08:14:24.926Z,101193.13
2018-02-05T08:17:26.243Z,101203.58
2018-02-05T08:20:27.608Z,101197.84
2018-02-05T08:23:28.925Z,101192.80
2018-02-05T08:26:30.281Z,101193.03
2018-02-05T08:29:31.629Z,101200.61
2018-02-05T08:32:32.979Z,101200.77
2018-02-05T08:35:35.066Z,101193.03
2018-02-05T08:38:36.397Z,101193.33
2018-02-05T08:41:37.721Z,101200.08
2018-02-05T08:44:39.054Z,101202.19
2018-02-05T08:47:40.346Z,101192.78
2018-02-05T08:50:41.718Z,101196.92
2018-02-05T08:53:43.050Z,101187.59
2018-02-05T08:56:45.115Z,101185.19
2018-02-05T08:59:46.419Z,101184.61
2018-02-05T09:02:47.737Z,101185.60
2018-02-05T09:05:49.099Z,101193.93
2018-02-05T09:08:51.178Z,101186.11
2018-02-05T09:11:52.484Z,101191.27
2018-02-05T09:14:53.828Z,101188.71
2018-02-05T09:17:55.135Z,101178.75
2018-02-05T09:20:57.190Z,101177.66
2018-02-05T09:23:58.544Z,101184.69
2018-02-05T09:26:59.906Z,101180.45
2018-02-05T09:30:01.212Z,101176.37
2018-02-05T09:33:02.562Z,101187.92
2018-02-05T09:36:03.878Z,101189.14
2018-02-05T09:39:05.250Z,101192.00
2018-02-05T09:42:06.543Z,101187.22
2018-02-05T09:45:07.876Z,101184.84
2018-02-05T09:48:09.147Z,101178.09
2018-02-05T09:51:11.214Z,101171.82
2018-02-05T09:54:12.507Z,101171.27
2018-02-05T09:57:13.847Z,101176.09
2018-02-05T10:00:15.181Z,101164.92
2018-02-05T10:03:17.270Z,101166.05
2018-02-05T10:06:18.589Z,101159.20
2018-02-05T10:09:19.931Z,101162.66
2018-02-05T10:12:21.234Z,101167.84
2018-02-05T10:15:22.607Z,101176.71
2018-02-05T10:18:24.674Z,101174.89
2018-02-05T10:21:26.027Z,101160.36
2018-02-05T10:24:27.346Z,101164.39
2018-02-05T10:27:28.674Z,101146.42
2018-02-05T10:30:30.046Z,101151.58
2018-02-05T10:33:31.443Z,101144.49
2018-02-05T10:36:32.866Z,101148.25
2018-02-05T10:39:34.163Z,101137.55
2018-02-05T10:42:36.261Z,101141.80
2018-02-05T10:45:38.448Z,101131.09
2018-02-05T10:48:40.678Z,101132.84
2018-02-05T10:51:42.152Z,101127.70
2018-02-05T10:54:43.614Z,101125.59
2018-02-05T10:57:45.097Z,101122.17
2018-02-05T11:00:46.624Z,101122.74
2018-02-05T11:03:48.150Z,101099.31
2018-02-05T11:06:49.621Z,101123.55
2018-02-05T11:09:51.099Z,101113.47
2018-02-05T11:12:52.539Z,101101.77
2018-02-05T11:15:54.071Z,101107.06
2018-02-05T11:18:55.515Z,101100.59
2018-02-05T11:21:56.916Z,101098.86
2018-02-05T11:24:58.363Z,101074.63
2018-02-05T11:28:00.447Z,101093.48
2018-02-05T11:31:01.744Z,101089.91
2018-02-05T11:34:04.115Z,101086.84
2018-02-05T11:37:05.579Z,101087.11
2018-02-05T11:40:06.931Z,101094.36
2018-02-05T11:43:08.251Z,101089.76
2018-02-05T11:46:09.607Z,101085.95
2018-02-05T11:49:10.941Z,101078.59
2018-02-05T11:52:13.016Z,101077.73
2018-02-05T11:55:14.319Z,101079.61
2018-02-05T11:58:16.687Z,101083.94
2018-02-05T12:01:18.011Z,101073.55
2018-02-05T12:04:20.059Z,101068.99
2018-02-05T12:07:21.378Z,101067.33
2018-02-05T12:10:22.807Z,101067.09
2018-02-05T12:13:24.113Z,101063.48
2018-02-05T12:16:25.437Z,101059.39
2018-02-05T12:19:27.642Z,101064.59
2018-02-05T12:22:29.690Z,101056.96
2018-02-05T12:25:30.990Z,101052.47
2018-02-05T12:28:32.386Z,101056.48
2018-02-05T12:31:34.455Z,101060.27
2018-02-05T12:34:35.758Z,101049.43
2018-02-05T12:37:37.772Z,101056.23
2018-02-05T12:40:39.812Z,101051.34
2018-02-05T12:43:41.140Z,101039.53
2018-02-05T12:46:43.162Z,101028.38
2018-02-05T12:49:44.481Z,101031.50
2018-02-05T12:52:45.790Z,101029.77
2018-02-05T12:55:47.917Z,101019.59
2018-02-05T12:58:49.219Z,101025.22
2018-02-05T13:05:43.395Z,101013.92
2018-02-05T13:08:44.718Z,101014.91
2018-02-05T13:11:46.294Z,101011.62
2018-02-05T13:14:47.693Z,101010.73
2018-02-05T13:17:49.029Z,101007.16
2018-02-05T13:20:50.338Z,101001.03
2018-02-05T13:23:52.386Z,100999.74
2018-02-05T13:26:54.105Z,100990.86
2018-02-05T13:29:55.392Z,100995.77
2018-02-05T13:32:56.843Z,101000.09
2018-02-05T13:36:05.174Z,100982.72
2018-02-05T13:39:06.691Z,100980.77
2018-02-05T13:42:08.058Z,100978.00
2018-02-05T13:45:09.522Z,100971.38
2018-02-05T13:48:10.794Z,100969.56
2018-02-05T13:51:12.319Z,100972.17
2018-02-05T13:54:13.607Z,100964.16
2018-02-05T13:57:15.047Z,100960.52
2018-02-05T14:00:17.186Z,100950.83
2018-02-05T14:03:18.447Z,100948.80
2018-02-05T14:06:19.762Z,100951.41
2018-02-05T14:09:21.181Z,100950.75
2018-02-05T14:12:22.474Z,100942.48
2018-02-05T14:15:23.870Z,100948.33
2018-02-05T14:18:25.235Z,100938.41
2018-02-05T14:21:26.663Z,100932.47
2018-02-05T14:24:28.015Z,100938.07
2018-02-05T14:27:29.585Z,100931.89
2018-02-05T14:30:30.895Z,100924.85
2018-02-05T14:33:32.409Z,100929.88
2018-02-05T14:36:33.726Z,100934.67
2018-02-05T14:39:35.222Z,100932.77
2018-02-05T14:42:36.517Z,100935.23
2018-02-05T14:45:38.031Z,100914.87
2018-02-05T14:48:39.345Z,100922.55
2018-02-05T14:51:40.862Z,100925.50
2018-02-05T14:54:42.126Z,100933.91
2018-02-05T14:57:43.697Z,100933.55
2018-02-05T15:00:45.003Z,100927.15
2018-02-05T15:03:46.452Z,100912.83
2018-02-05T15:06:47.923Z,100914.56
2018-02-05T15:09:50.082Z,100904.05
2018-02-05T15:12:51.402Z,100911.16
2018-02-05T15:15:53.453Z,100913.06
2018-02-05T15:18:54.769Z,100899.02
2018-02-05T15:21:56.790Z,100901.16
2018-02-05T15:24:58.095Z,100905.36
2018-02-05T15:27:59.450Z,100906.03
2018-02-05T15:31:00.837Z,100899.30
2018-02-05T15:34:02.134Z,100892.03
2018-02-05T15:37:03.489Z,100893.40
2018-02-05T15:40:04.786Z,100887.44
2018-02-05T15:43:06.133Z,100886.11
2018-02-05T15:46:08.225Z,100883.39
2018-02-05T15:49:10.547Z,100881.21
2018-02-05T15:52:11.863Z,100890.98
2018-02-05T15:55:13.479Z,100883.97
2018-02-05T15:58:14.788Z,100882.91
2018-02-05T16:01:16.454Z,100875.52
2018-02-05T16:04:17.802Z,100874.69
2018-02-05T16:07:19.532Z,100882.66
2018-02-05T16:10:21.578Z,100883.69
2018-02-05T16:13:23.107Z,100884.20
2018-02-05T16:16:25.169Z,100882.13
2018-02-05T16:19:26.519Z,100885.09
2018-02-05T16:22:27.799Z,100882.83
2018-02-05T16:25:29.134Z,100875.28
2018-02-05T16:28:30.518Z,100885.27
2018-02-05T16:31:32.055Z,100890.64
2018-02-05T16:34:33.390Z,100886.96
2018-02-05T16:37:34.978Z,100881.25
2018-02-05T16:40:36.264Z,100881.44
2018-02-05T16:43:38.382Z,100885.31
2018-02-05T16:46:39.829Z,100878.59
2018-02-05T16:49:41.301Z,100875.97
2018-02-05T16:52:42.708Z,100868.64
2018-02-05T16:55:44.823Z,100856.44
2018-02-05T16:58:46.676Z,100860.80
2018-02-05T17:01:48.106Z,100861.04
2018-02-05T17:04:49.453Z,100870.70
2018-02-05T17:07:50.835Z,100855.02
2018-02-05T17:10:52.913Z,100854.12
2018-02-05T17:13:54.302Z,100851.02
2018-02-05T17:16:56.021Z,100866.25
2018-02-05T17:19:57.363Z,100865.00
2018-02-05T17:22:59.198Z,100867.61
2018-02-05T17:26:00.567Z,100868.92
2018-02-05T17:29:02.778Z,100859.16
2018-02-05T17:32:04.176Z,100855.52
2018-02-05T17:35:05.563Z,100861.80
2018-02-05T17:38:06.931Z,100863.06
2018-02-05T17:41:08.343Z,100850.47
2018-02-05T17:44:09.674Z,100855.13
2018-02-05T17:47:11.763Z,100858.22
2018-02-05T17:50:13.944Z,100850.87
2018-02-05T17:53:16.090Z,100856.38
2018-02-05T17:56:17.801Z,100849.19
2018-02-05T17:59:19.112Z,100857.93
2018-02-05T18:02:20.878Z,100844.00
2018-02-05T18:05:22.174Z,100846.55
2018-02-05T18:08:24.253Z,100849.89
2018-02-05T18:11:25.538Z,100842.47
2018-02-05T18:14:27.007Z,100841.45
2018-02-05T18:17:28.337Z,100846.82
2018-02-05T18:20:29.857Z,100837.25
2018-02-05T18:23:31.221Z,100837.66
2018-02-05T18:26:32.696Z,100838.48
2018-02-05T18:29:34.805Z,100836.61
2018-02-05T18:32:36.178Z,100830.78
2018-02-05T18:35:39.294Z,100834.08
2018-02-05T18:38:41.815Z,100839.93
2018-02-05T18:41:44.198Z,100842.00
2018-02-05T18:44:45.909Z,100830.05
2018-02-05T18:47:48.226Z,100827.13
2018-02-05T18:50:49.620Z,100832.45
2018-02-05T18:53:51.691Z,100828.17
2018-02-05T18:56:53.444Z,100820.75
2018-02-05T18:59:55.487Z,100820.03
2018-02-05T19:02:57.206Z,100819.33
2018-02-05T19:05:58.553Z,100817.75
2018-02-05T19:08:59.872Z,100821.11
2018-02-05T19:12:01.172Z,100821.08
2018-02-05T19:15:02.522Z,100811.28
2018-02-05T19:18:03.845Z,100812.16
2018-02-05T19:21:05.193Z,100816.52
2018-02-05T19:24:06.842Z,100816.58
2018-02-05T19:27:08.156Z,100811.03
2018-02-05T19:30:09.533Z,100811.25
2018-02-05T19:33:10.946Z,100812.27
2018-02-05T19:36:12.459Z,100809.83
2018-02-05T19:39:13.826Z,100807.57
2018-02-05T19:42:15.367Z,100807.52
2018-02-05T19:45:16.668Z,100795.59
2018-02-05T19:48:18.227Z,100789.27
2018-02-05T19:51:19.579Z,100799.34
2018-02-05T19:54:21.227Z,100786.12
2018-02-05T19:57:22.534Z,100794.20
2018-02-05T20:00:24.639Z,100791.88
2018-02-05T20:03:26.171Z,100786.09
2018-02-05T20:06:27.817Z,100785.70
2018-02-05T20:09:29.204Z,100787.66
2018-02-05T20:12:30.709Z,100771.36
2018-02-05T20:15:32.018Z,100766.65
2018-02-05T20:18:33.907Z,100774.20
2018-02-05T20:21:35.281Z,100774.69
2018-02-05T20:24:37.263Z,100776.06
2018-02-05T20:27:38.904Z,100766.09
2018-02-05T20:30:41.104Z,100775.51
2018-02-05T20:33:42.571Z,100775.44
2018-02-05T20:36:44.453Z,100774.86
2018-02-05T20:39:45.884Z,100768.70
2018-02-05T20:42:48.630Z,100773.88
2018-02-05T20:45:50.170Z,100767.82
2018-02-05T20:48:52.437Z,100768.05
2018-02-05T20:51:55.003Z,100772.13
2018-02-05T20:54:56.619Z,100761.08
2018-02-05T20:57:58.224Z,100762.66
2018-02-05T21:00:59.550Z,100775.30
2018-02-05T21:04:00.995Z,100770.95
2018-02-05T21:07:02.352Z,100764.95
2018-02-05T21:10:04.365Z,100769.98
2018-02-05T21:13:07.680Z,100766.34
2018-02-05T21:16:09.565Z,100757.56
2018-02-05T21:19:11.030Z,100755.03
2018-02-05T21:22:12.951Z,100753.28
2018-02-05T21:25:14.845Z,100750.17
2018-02-05T21:28:16.987Z,100743.97
2018-02-05T21:31:19.317Z,100742.39
2018-02-05T21:34:21.082Z,100744.47
2018-02-05T21:37:23.412Z,100735.70
2018-02-05T21:40:24.900Z,100727.80
2018-02-05T21:43:26.655Z,100727.09
2018-02-05T21:46:28.613Z,100719.18
2018-02-05T21:49:31.154Z,100713.42
2018-02-05T21:52:32.684Z,100703.34
2018-02-05T21:55:34.716Z,100720.32
2018-02-05T21:58:36.041Z,100713.84
2018-02-05T22:01:37.392Z,100719.83
2018-02-05T22:04:39.421Z,100716.68
2018-02-05T22:07:40.734Z,100719.18
2018-02-05T22:10:42.045Z,100717.20
2018-02-05T22:13:44.119Z,100715.98
2018-02-05T22:16:45.411Z,100710.89
2018-02-05T22:19:46.858Z,100715.35
2018-02-05T22:22:48.174Z,100710.34
2018-02-05T22:25:49.485Z,100702.53
2018-02-05T22:28:50.819Z,100697.72
2018-02-05T22:31:52.131Z,100696.73
2018-02-05T22:34:54.215Z,100689.70
2018-02-05T22:37:55.515Z,100684.72
2018-02-05T22:40:57.569Z,100682.53
2018-02-05T22:43:58.887Z,100677.61
2018-02-05T22:47:00.973Z,100681.80
2018-02-05T22:50:03.060Z,100677.74
2018-02-05T22:53:05.095Z,100683.72
2018-02-05T22:56:06.397Z,100688.55
2018-02-05T22:59:07.682Z,100666.97
2018-02-05T23:02:09.039Z,100662.25
2018-02-05T23:05:10.351Z,100660.98
2018-02-05T23:08:11.635Z,100651.38
2018-02-05T23:11:12.978Z,100650.23
2018-02-05T23:14:14.295Z,100650.30
2018-02-05T23:17:15.654Z,100644.24
2018-02-05T23:20:16.980Z,100631.06
2018-02-05T23:23:18.303Z,100634.22
2018-02-05T23:26:19.656Z,100622.10
2018-02-05T23:29:21.713Z,100620.02
2018-02-05T23:32:23.067Z,100614.80
2018-02-05T23:35:24.410Z,100608.16
2018-02-05T23:38:26.439Z,100611.48
2018-02-05T23:41:27.750Z,100607.12
2018-02-05T23:44:29.906Z,100595.61
2018-02-05T23:47:31.206Z,100586.02
2018-02-05T23:50:32.521Z,100586.77
2018-02-05T23:53:33.818Z,100586.90
2018-02-05T23:56:35.158Z,100574.62
2018-02-05T23:59:36.451Z,100575.11
